ADDS METAR Data INFO
IDs: Format: Raw Decoded Include TAF

Data at: 2312 UTC 15 Jul 2018

KPQI 152256Z AUTO 23005KT 10SM BKN031 22/18 A2995 RMK AO2 SLP178 T02220183
KPQI 152156Z AUTO 23003KT 10SM SCT031 24/18 A2994 RMK AO2 SLP173 T02390178
KPQI 152056Z AUTO 00000KT 10SM FEW085 24/17 A2993 RMK AO2 SLP170 T02440167 56006
KPQI 152024Z AUTO 00000KT 10SM SCT029 SCT090 24/17 A2994 RMK AO2
KPQI 151956Z AUTO 00000KT 10SM BKN029 BKN085 24/17 A2993 RMK AO2 SLP172 T02440172
KPQI 151948Z AUTO 00000KT 10SM BKN029 BKN080 24/17 A2994 RMK AO2
KPQI 151935Z AUTO 29005KT 10SM SCT027 SCT070 BKN080 24/17 A2993 RMK AO2
KPQI 151856Z AUTO 17003KT 10SM BKN027 BKN070 23/17 A2994 RMK AO2 SLP175 T02330167
KPQI 151756Z AUTO 00000KT 10SM OVC032 22/17 A2995 RMK AO2 SLP178 T02220167 10222 20167 56002
KPQI 151740Z AUTO 16003KT 10SM OVC030 22/16 A2995 RMK AO2
KPQI 151656Z AUTO 15005KT 10SM BKN028 OVC033 21/16 A2995 RMK AO2 SLP178 T02110156
KPQI 151556Z AUTO VRB03KT 10SM OVC024 21/16 A2995 RMK AO2 SLP180 T02110156
KPQI 151541Z AUTO 00000KT 9SM BKN024 OVC042 21/16 A2995 RMK AO2
KPQI 151456Z AUTO 16004KT 10SM FEW030 BKN046 21/14 A2996 RMK AO2 SLP183 T02060144 58007
KPQI 151356Z AUTO VRB04KT 10SM BKN044 19/14 A2997 RMK AO2 SLP186 T01890139
KPQI 151315Z AUTO 13006KT 10SM FEW025 SCT044 OVC070 18/13 A2997 RMK AO2
KPQI 151256Z AUTO 14004KT 10SM BKN025 OVC070 17/13 A2998 RMK AO2 SLP190 T01720128
KPQI 151235Z AUTO 15007KT 10SM BKN025 BKN041 OVC065 17/12 A2999 RMK AO2
KPQI 151156Z AUTO 16005KT 10SM FEW026 BKN043 OVC060 17/12 A2998 RMK AO2 SLP192 T01670122 10167 20161 56001
KPQI 151056Z AUTO 16005KT 10SM SCT029 OVC055 16/12 A2998 RMK AO2 SLP192 T01610117
KPQI 150956Z AUTO 15006KT 10SM OVC050 16/11 A2998 RMK AO2 SLP191 T01610111
KPQI 150856Z AUTO 00000KT 10SM FEW034 OVC050 16/11 A2999 RMK AO2 SLP192 T01610111 55004
KPQI 150844Z AUTO 16003KT 10SM FEW030 BKN034 OVC050 16/11 A2999 RMK AO2
KPQI 150756Z AUTO 18005KT 10SM BKN028 BKN033 OVC049 17/11 A2999 RMK AO2 SLP192 T01670111
KPQI 150656Z AUTO 18004KT 10SM OVC033 17/11 A2999 RMK AO2 SLP194 T01670111
KPQI 150556Z AUTO 17006KT 10SM OVC039 17/12 A3000 RMK AO2 SLP196 T01670117 10189 20167 56010
KPQI 150509Z AUTO 20007KT 10SM SCT030 OVC043 17/12 A3000 RMK AO2
KPQI 150456Z AUTO 19008KT 10SM BKN027 OVC033 17/12 A3000 RMK AO2 SLP198 T01720117 402170117
KPQI 150413Z AUTO 17005KT 10SM BKN027 OVC037 18/11 A3001 RMK AO2
KPQI 150356Z AUTO 18006KT 10SM FEW030 OVC035 18/11 A3002 RMK AO2 SLP202 T01780111
KPQI 150256Z AUTO 18004KT 10SM OVC033 18/12 A3003 RMK AO2 SLP206 T01830117 58006
KPQI 150156Z AUTO 18006KT 10SM OVC036 18/12 A3004 RMK AO2 SLP210 T01830117
KPQI 150056Z AUTO 18004KT 10SM OVC038 18/12 A3004 RMK AO2 SLP211 T01830122
KPQI 142356Z AUTO 16006KT 10SM OVC044 19/12 A3005 RMK AO2 SLP214 T01890122 10211 20189 56007
KPQI 142256Z AUTO 18006KT 10SM OVC060 19/13 A3005 RMK AO2 SLP216 T01940128
KPQI 142156Z AUTO 19007KT 10SM OVC065 20/13 A3005 RMK AO2 SLP217 T02000128
KPQI 142056Z AUTO 18010KT 10SM OVC080 21/13 A3007 RMK AO2 SLP222 T02060128 58010
KPQI 141956Z AUTO 18006KT 10SM OVC085 21/13 A3008 RMK AO2 SLP225 T02060128
KPQI 141856Z AUTO 19009KT 10SM OVC090 21/12 A3009 RMK AO2 SLP229 T02110117
KPQI 141756Z AUTO 19010KT 10SM OVC100 21/11 A3010 RMK AO2 SLP231 T02110111 10217 20167 58013
KPQI 141656Z AUTO 18010KT 10SM FEW100 22/12 A3012 RMK AO2 SLP236 T02170117
KPQI 141556Z AUTO 18008KT 10SM SCT075 SCT120 21/12 A3013 RMK AO2 SLP241 T02060117
KPQI 141456Z AUTO 20010KT 10SM CLR 21/12 A3014 RMK AO2 SLP243 T02110122 56013
KPQI 141356Z AUTO 18012KT 10SM CLR 21/12 A3014 RMK AO2 SLP243 T02060122
KPQI 141256Z AUTO 15007KT 10SM CLR 19/13 A3016 RMK AO2 SLP252 T01940128
KPQI 141156Z AUTO 16005KT 10SM CLR 17/12 A3018 RMK AO2 SLP257 T01670117 10167 20117 55002